createdAt,value
2017-09-05T00:01:02.784Z,74.01
2017-09-05T00:03:44.444Z,73.62
2017-09-05T00:05:48.145Z,73.52
2017-09-05T00:07:51.153Z,74.10
2017-09-05T00:09:53.008Z,73.81
2017-09-05T00:11:54.476Z,74.10
2017-09-05T00:13:55.986Z,74.39
2017-09-05T00:15:59.186Z,74.29
2017-09-05T00:18:00.648Z,74.48
2017-09-05T00:20:02.134Z,74.48
2017-09-05T00:22:05.230Z,74.58
2017-09-05T00:24:06.902Z,74.96
2017-09-05T00:26:08.464Z,74.87
2017-09-05T00:28:11.394Z,74.10
2017-09-05T00:30:14.385Z,74.19
2017-09-05T00:32:15.816Z,73.91
2017-09-05T00:34:18.916Z,74.19
2017-09-05T00:37:03.448Z,74.01
2017-09-05T00:39:04.917Z,74.10
2017-09-05T00:41:08.597Z,74.19
2017-09-05T00:43:12.019Z,74.39
2017-09-05T00:45:13.755Z,74.48
2017-09-05T00:47:15.154Z,74.29
2017-09-05T00:49:16.663Z,74.29
2017-09-05T00:51:59.355Z,74.06
2017-09-05T00:54:03.535Z,74.73
2017-09-05T00:56:05.215Z,74.44
2017-09-05T00:58:06.633Z,75.02
2017-09-05T01:00:08.088Z,74.64
2017-09-05T01:02:09.498Z,73.97
2017-09-05T01:04:10.928Z,75.02
2017-09-05T01:06:12.361Z,74.54
2017-09-05T01:08:54.900Z,75.21
2017-09-05T01:10:56.316Z,75.31
2017-09-05T01:12:57.736Z,75.70
2017-09-05T01:14:59.154Z,76.37
2017-09-05T01:17:00.816Z,76.27
2017-09-05T01:19:02.367Z,77.23
2017-09-05T01:21:04.032Z,76.65
2017-09-05T01:23:46.497Z,76.27
2017-09-05T01:26:28.017Z,77.13
2017-09-05T01:28:29.435Z,76.65
2017-09-05T01:30:32.543Z,76.84
2017-09-05T01:32:35.601Z,77.13
2017-09-05T01:34:37.206Z,76.75
2017-09-05T01:36:38.755Z,76.94
2017-09-05T01:38:41.776Z,77.13
2017-09-05T01:41:23.500Z,77.33
2017-09-05T01:43:24.912Z,77.33
2017-09-05T01:45:26.952Z,77.61
2017-09-05T01:47:28.375Z,77.61
2017-09-05T01:49:29.788Z,77.94
2017-09-05T01:51:31.222Z,78.09
2017-09-05T01:53:32.641Z,78.23
2017-09-05T01:56:17.587Z,78.80
2017-09-05T01:58:20.532Z,78.61
2017-09-05T02:00:21.909Z,78.13
2017-09-05T02:02:23.392Z,78.61
2017-09-05T02:04:25.482Z,78.23
2017-09-05T02:06:27.725Z,78.32
2017-09-05T02:08:30.650Z,78.13
2017-09-05T02:10:32.247Z,78.23
2017-09-05T02:12:33.742Z,78.23
2017-09-05T02:14:35.247Z,78.80
2017-09-05T02:16:38.102Z,78.80
2017-09-05T02:18:39.521Z,79.09
2017-09-05T02:20:41.048Z,79.19
2017-09-05T02:22:43.989Z,78.99
2017-09-05T02:24:46.858Z,78.99
2017-09-05T02:26:48.678Z,79.80
2017-09-05T02:29:33.220Z,79.19
2017-09-05T02:31:36.199Z,79.03
2017-09-05T02:33:37.562Z,78.90
2017-09-05T02:35:38.976Z,79.61
2017-09-05T02:37:41.913Z,79.71
2017-09-05T02:39:43.325Z,79.90
2017-09-05T02:42:24.749Z,80.86
2017-09-05T02:44:26.186Z,80.96
2017-09-05T02:46:27.609Z,80.76
2017-09-05T02:48:29.027Z,81.01
2017-09-05T02:50:30.458Z,81.63
2017-09-05T02:52:33.334Z,81.49
2017-09-05T02:54:36.245Z,81.53
2017-09-05T02:56:37.787Z,81.43
2017-09-05T02:59:23.197Z,81.72
2017-09-05T03:01:24.395Z,81.59
2017-09-05T03:03:25.955Z,81.82
2017-09-05T03:05:27.365Z,82.16
2017-09-05T03:07:28.795Z,81.78
2017-09-05T03:09:30.239Z,82.26
2017-09-05T03:11:31.735Z,82.68
2017-09-05T03:13:33.251Z,82.49
2017-09-05T03:15:34.687Z,82.20
2017-09-05T03:17:36.228Z,82.20
2017-09-05T03:19:37.834Z,82.78
2017-09-05T03:21:39.337Z,82.59
2017-09-05T03:23:40.871Z,82.74
2017-09-05T03:25:42.405Z,82.78
2017-09-05T03:27:43.886Z,83.07
2017-09-05T03:30:26.605Z,83.16
2017-09-05T03:32:27.973Z,82.87
2017-09-05T03:34:29.393Z,82.93
2017-09-05T03:36:30.810Z,82.97
2017-09-05T03:38:32.227Z,83.07
2017-09-05T03:40:33.730Z,83.54
2017-09-05T03:42:35.140Z,83.89
2017-09-05T03:45:17.541Z,84.27
2017-09-05T03:47:18.964Z,84.08
2017-09-05T03:49:20.385Z,84.27
2017-09-05T03:51:21.809Z,84.03
2017-09-05T03:53:23.227Z,83.89
2017-09-05T03:55:24.653Z,84.95
2017-09-05T03:57:26.073Z,85.08
2017-09-05T03:59:27.507Z,84.95
2017-09-05T04:01:29.377Z,85.04
2017-09-05T04:03:30.794Z,84.99
2017-09-05T04:05:33.975Z,84.95
2017-09-05T04:07:35.323Z,85.08
2017-09-05T04:09:36.797Z,84.51
2017-09-05T04:11:38.213Z,84.99
2017-09-05T04:13:39.636Z,85.42
2017-09-05T04:15:42.832Z,85.14
2017-09-05T04:18:25.880Z,85.37
2017-09-05T04:20:30.149Z,84.85
2017-09-05T04:22:31.426Z,84.99
2017-09-05T04:24:32.850Z,85.57
2017-09-05T04:26:34.266Z,85.18
2017-09-05T04:28:37.449Z,86.00
2017-09-05T04:30:38.775Z,85.85
2017-09-05T04:33:21.182Z,86.05
2017-09-05T04:35:22.605Z,85.75
2017-09-05T04:37:24.027Z,85.85
2017-09-05T04:39:25.509Z,85.75
2017-09-05T04:41:27.194Z,85.47
2017-09-05T04:43:28.610Z,85.37
2017-09-05T04:45:30.055Z,85.18
2017-09-05T04:47:31.545Z,85.47
2017-09-05T04:49:32.971Z,85.08
2017-09-05T04:51:34.503Z,85.28
2017-09-05T04:53:36.056Z,85.37
2017-09-05T04:55:37.693Z,85.18
2017-09-05T04:57:39.203Z,84.99
2017-09-05T04:59:40.921Z,84.99
2017-09-05T05:01:42.633Z,85.47
2017-09-05T05:03:45.586Z,84.51
2017-09-05T05:05:46.946Z,84.80
2017-09-05T05:07:48.429Z,84.55
2017-09-05T05:09:49.919Z,84.74
2017-09-05T05:11:51.440Z,84.80
2017-09-05T05:13:54.356Z,85.28
2017-09-05T05:15:56.339Z,84.51
2017-09-05T05:17:57.840Z,84.99
2017-09-05T05:20:40.378Z,85.66
2017-09-05T05:22:42.312Z,86.24
2017-09-05T05:24:43.742Z,86.05
2017-09-05T05:26:46.592Z,85.95
2017-09-05T05:28:48.029Z,85.85
2017-09-05T05:30:49.533Z,86.43
2017-09-05T05:32:50.991Z,85.85
2017-09-05T05:34:52.485Z,85.95
2017-09-05T05:36:54.000Z,85.85
2017-09-05T05:38:55.505Z,86.05
2017-09-05T05:40:56.942Z,85.66
2017-09-05T05:43:00.097Z,85.57
2017-09-05T05:45:01.468Z,85.37
2017-09-05T05:47:02.973Z,85.41
2017-09-05T05:49:04.485Z,85.13
2017-09-05T05:51:07.402Z,85.03
2017-09-05T05:53:10.419Z,85.18
2017-09-05T05:55:11.819Z,85.95
2017-09-05T05:57:13.339Z,85.66
2017-09-05T05:59:16.103Z,86.24
2017-09-05T06:01:17.641Z,86.14
2017-09-05T06:03:19.173Z,85.61
2017-09-05T06:05:20.684Z,85.22
2017-09-05T06:08:05.363Z,85.47
2017-09-05T06:10:08.758Z,85.41
2017-09-05T06:12:10.393Z,85.61
2017-09-05T06:14:11.888Z,85.41
2017-09-05T06:16:13.334Z,85.41
2017-09-05T06:18:14.866Z,85.22
2017-09-05T06:20:16.414Z,85.61
2017-09-05T06:22:17.928Z,85.61
2017-09-05T06:24:19.438Z,85.22
2017-09-05T06:26:20.949Z,85.41
2017-09-05T06:28:22.456Z,85.22
2017-09-05T06:30:23.933Z,85.22
2017-09-05T06:32:25.459Z,85.22
2017-09-05T06:34:26.991Z,85.13
2017-09-05T06:36:28.548Z,85.32
2017-09-05T06:38:30.119Z,84.74
2017-09-05T06:40:31.662Z,85.13
2017-09-05T06:42:33.164Z,85.22
2017-09-05T06:44:34.818Z,85.03
2017-09-05T06:46:36.291Z,85.13
2017-09-05T06:48:37.759Z,84.64
2017-09-05T06:50:39.284Z,84.88
2017-09-05T06:52:40.891Z,84.69
2017-09-05T06:54:42.411Z,84.40
2017-09-05T06:56:44.655Z,84.11
2017-09-05T06:58:46.086Z,84.88
2017-09-05T07:00:47.565Z,84.50
2017-09-05T07:02:49.015Z,84.40
2017-09-05T07:04:50.640Z,84.30
2017-09-05T07:06:52.089Z,83.83
2017-09-05T07:08:54.148Z,84.50
2017-09-05T07:10:55.694Z,84.11
2017-09-05T07:12:57.168Z,84.21
2017-09-05T07:14:58.625Z,84.21
2017-09-05T07:17:00.054Z,84.21
2017-09-05T07:19:01.479Z,83.67
2017-09-05T07:21:02.905Z,83.29
2017-09-05T07:23:05.303Z,83.00
2017-09-05T07:25:07.788Z,82.94
2017-09-05T07:27:10.506Z,81.98
2017-09-05T07:29:11.942Z,82.94
2017-09-05T07:31:14.032Z,81.70
2017-09-05T07:33:15.496Z,82.21
2017-09-05T07:35:16.934Z,80.96
2017-09-05T07:37:18.375Z,80.77
2017-09-05T07:39:19.801Z,80.19
2017-09-05T07:41:21.297Z,79.43
2017-09-05T07:43:24.042Z,79.90
2017-09-05T07:45:27.126Z,79.81
2017-09-05T07:47:28.532Z,80.48
2017-09-05T07:49:30.037Z,80.81
2017-09-05T07:51:31.873Z,79.66
2017-09-05T07:53:33.727Z,80.04
2017-09-05T07:55:36.120Z,79.02
2017-09-05T07:57:37.657Z,78.06
2017-09-05T07:59:39.794Z,78.50
2017-09-05T08:01:41.402Z,78.98
2017-09-05T08:03:43.032Z,79.08
2017-09-05T08:05:44.555Z,79.79
2017-09-05T08:07:46.073Z,78.98
2017-09-05T08:09:47.650Z,79.08
2017-09-05T08:11:49.069Z,79.36
2017-09-05T08:13:50.560Z,79.66
2017-09-05T08:15:52.662Z,79.85
2017-09-05T08:17:54.173Z,80.37
2017-09-05T08:19:56.204Z,79.60
2017-09-05T08:21:57.676Z,78.63
2017-09-05T08:23:59.164Z,78.92
2017-09-05T08:26:01.442Z,78.54
2017-09-05T08:28:02.718Z,79.50
2017-09-05T08:30:04.146Z,79.56
2017-09-05T08:32:05.607Z,79.60
2017-09-05T08:34:07.053Z,80.18
2017-09-05T08:36:08.907Z,79.31
2017-09-05T08:38:10.651Z,79.41
2017-09-05T08:40:12.676Z,81.33
2017-09-05T08:42:14.339Z,79.41
2017-09-05T08:44:16.051Z,78.44
2017-09-05T08:46:20.583Z,78.96
2017-09-05T08:48:23.449Z,79.25
2017-09-05T08:50:25.280Z,78.19
2017-09-05T08:52:27.560Z,77.81
2017-09-05T08:54:32.429Z,78.00
2017-09-05T08:56:36.172Z,77.84
2017-09-05T08:58:37.991Z,79.39
2017-09-05T09:00:39.592Z,77.55
2017-09-05T09:02:41.414Z,76.88
2017-09-05T09:04:43.139Z,77.36
2017-09-05T09:06:44.969Z,76.68
2017-09-05T09:08:47.199Z,78.81
2017-09-05T09:10:49.630Z,78.71
2017-09-05T09:12:52.299Z,77.75
2017-09-05T09:14:54.038Z,78.96
2017-09-05T09:16:56.571Z,78.13
2017-09-05T09:18:58.529Z,78.81
2017-09-05T09:21:00.287Z,78.23
2017-09-05T09:23:01.875Z,79.58
2017-09-05T09:25:03.402Z,79.39
2017-09-05T09:27:04.935Z,78.42
2017-09-05T09:29:06.440Z,79.00
2017-09-05T09:31:07.955Z,78.91
2017-09-05T09:33:50.542Z,78.71
2017-09-05T09:35:52.000Z,78.61
2017-09-05T09:37:54.086Z,77.98
2017-09-05T09:39:55.468Z,76.72
2017-09-05T09:41:56.904Z,78.36
2017-09-05T09:43:58.341Z,77.40
2017-09-05T09:45:59.770Z,76.63
2017-09-05T09:48:01.198Z,76.34
2017-09-05T09:50:02.626Z,77.40
2017-09-05T09:52:04.059Z,77.59
2017-09-05T09:54:05.543Z,76.76
2017-09-05T09:56:06.983Z,76.09
2017-09-05T09:58:08.427Z,75.31
2017-09-05T10:00:10.038Z,75.51
2017-09-05T10:02:11.461Z,75.79
2017-09-05T10:04:12.891Z,76.18
2017-09-05T10:06:14.318Z,76.37
2017-09-05T10:08:16.041Z,74.93
2017-09-05T10:10:18.502Z,75.02
2017-09-05T10:12:19.963Z,74.29
2017-09-05T10:14:21.471Z,73.71
2017-09-05T10:16:23.345Z,73.71
2017-09-05T10:18:24.845Z,74.52
2017-09-05T10:20:26.314Z,73.55
2017-09-05T10:22:27.821Z,72.49
2017-09-05T10:24:29.455Z,72.24
2017-09-05T10:26:30.984Z,71.56
2017-09-05T10:28:32.548Z,71.62
2017-09-05T10:30:34.002Z,70.26
2017-09-05T10:32:35.540Z,71.23
2017-09-05T10:34:36.976Z,71.62
2017-09-05T10:36:38.483Z,72.00
2017-09-05T10:38:39.996Z,72.62
2017-09-05T10:40:41.499Z,72.04
2017-09-05T10:42:42.994Z,71.75
2017-09-05T10:44:44.454Z,71.94
2017-09-05T10:46:45.934Z,72.52
2017-09-05T10:48:47.376Z,72.14
2017-09-05T10:50:48.810Z,71.17
2017-09-05T10:52:50.245Z,71.56
2017-09-05T10:54:51.678Z,71.46
2017-09-05T10:56:53.972Z,72.42
2017-09-05T10:58:55.458Z,71.81
2017-09-05T11:00:56.954Z,71.56
2017-09-05T11:02:58.418Z,71.94
2017-09-05T11:04:59.927Z,71.56
2017-09-05T11:07:01.425Z,71.56
2017-09-05T11:09:02.855Z,71.78
2017-09-05T11:11:04.293Z,70.82
2017-09-05T11:13:05.729Z,70.72
2017-09-05T11:15:07.160Z,70.53
2017-09-05T11:17:08.595Z,70.24
2017-09-05T11:19:10.024Z,70.59
2017-09-05T11:21:11.462Z,70.98
2017-09-05T11:23:12.900Z,70.68
2017-09-05T11:25:14.331Z,70.88
2017-09-05T11:27:16.975Z,72.04
2017-09-05T11:29:18.349Z,72.14
2017-09-05T11:31:19.748Z,71.50
2017-09-05T11:33:21.178Z,70.86
2017-09-05T11:35:22.614Z,70.76
2017-09-05T11:37:24.045Z,69.24
2017-09-05T11:39:25.523Z,69.05
2017-09-05T11:41:28.040Z,68.47
2017-09-05T11:43:29.335Z,67.02
2017-09-05T11:45:30.761Z,66.82
2017-09-05T11:47:32.194Z,67.79
2017-09-05T11:49:33.629Z,69.05
2017-09-05T11:51:35.096Z,68.05
2017-09-05T11:53:36.776Z,68.43
2017-09-05T11:55:38.219Z,69.01
2017-09-05T11:57:39.820Z,69.37
2017-09-05T11:59:41.296Z,69.46
2017-09-05T12:01:42.740Z,69.85
2017-09-05T12:03:44.172Z,69.69
2017-09-05T12:05:45.608Z,67.56
2017-09-05T12:07:47.035Z,68.91
2017-09-05T12:09:48.475Z,69.17
2017-09-05T12:11:49.903Z,69.11
2017-09-05T12:13:51.334Z,68.69
2017-09-05T12:15:52.795Z,69.27
2017-09-05T12:17:54.235Z,69.46
2017-09-05T12:19:55.679Z,69.08
2017-09-05T12:21:57.139Z,70.24
2017-09-05T12:23:59.126Z,69.85
2017-09-05T12:26:00.601Z,70.43
2017-09-05T12:28:02.117Z,70.72
2017-09-05T12:30:03.570Z,70.82
2017-09-05T12:32:05.174Z,71.78
2017-09-05T12:34:06.609Z,70.88
2017-09-05T12:36:08.053Z,71.11
2017-09-05T12:38:09.489Z,70.68
2017-09-05T12:40:10.914Z,71.20
2017-09-05T12:42:12.347Z,70.50
2017-09-05T12:44:13.782Z,70.78
2017-09-05T12:46:15.219Z,71.50
2017-09-05T12:48:16.682Z,72.27
2017-09-05T12:50:18.097Z,69.37
2017-09-05T12:52:19.531Z,70.04
2017-09-05T12:54:20.971Z,69.95
2017-09-05T12:56:22.401Z,69.95
2017-09-05T12:58:24.082Z,71.01
2017-09-05T13:00:25.869Z,70.82
2017-09-05T13:02:27.395Z,71.56
2017-09-05T13:04:28.858Z,70.68
2017-09-05T13:06:30.323Z,70.68
2017-09-05T13:08:31.983Z,70.78
2017-09-05T13:10:33.835Z,71.42
2017-09-05T13:12:35.341Z,70.59
2017-09-05T13:14:36.863Z,71.17
2017-09-05T13:16:38.295Z,71.33
2017-09-05T13:18:40.178Z,71.84
2017-09-05T13:20:42.301Z,72.24
2017-09-05T13:22:44.382Z,71.94
2017-09-05T13:24:45.896Z,72.52
2017-09-05T13:26:47.322Z,72.62
2017-09-05T13:28:48.763Z,72.24
2017-09-05T13:30:50.196Z,71.30
2017-09-05T13:32:51.630Z,71.78
2017-09-05T13:34:53.062Z,71.30
2017-09-05T13:36:54.490Z,71.78
2017-09-05T13:38:56.648Z,70.24
2017-09-05T13:40:58.624Z,70.34
2017-09-05T13:43:00.117Z,70.72
2017-09-05T13:45:01.902Z,71.01
2017-09-05T13:47:03.243Z,71.01
2017-09-05T13:49:05.075Z,70.20
2017-09-05T13:51:06.575Z,71.46
2017-09-05T13:53:08.079Z,72.24
2017-09-05T13:55:09.905Z,70.68
2017-09-05T13:57:11.396Z,70.88
2017-09-05T13:59:13.076Z,70.68
2017-09-05T14:01:14.575Z,71.59
2017-09-05T14:03:16.620Z,70.34
2017-09-05T14:05:18.011Z,71.53
2017-09-05T14:07:19.468Z,69.21
2017-09-05T14:09:20.908Z,69.11
2017-09-05T14:11:22.343Z,68.91
2017-09-05T14:13:23.774Z,69.59
2017-09-05T14:15:25.206Z,68.43
2017-09-05T14:17:26.797Z,68.15
2017-09-05T14:19:28.870Z,68.88
2017-09-05T14:21:30.340Z,68.53
2017-09-05T14:23:31.820Z,69.01
2017-09-05T14:25:33.686Z,68.43
2017-09-05T14:27:35.138Z,68.63
2017-09-05T14:29:36.629Z,68.73
2017-09-05T14:31:38.104Z,68.56
2017-09-05T14:33:39.586Z,68.27
2017-09-05T14:35:41.023Z,67.69
2017-09-05T14:37:42.551Z,66.92
2017-09-05T14:39:44.009Z,67.30
2017-09-05T14:41:45.466Z,67.40
2017-09-05T14:43:47.083Z,67.40
2017-09-05T14:45:48.511Z,66.53
2017-09-05T14:47:49.945Z,66.27
2017-09-05T14:49:51.454Z,67.72
2017-09-05T14:51:52.900Z,66.56
2017-09-05T14:53:54.670Z,65.98
2017-09-05T14:55:56.103Z,65.69
2017-09-05T14:57:57.565Z,65.20
2017-09-05T14:59:59.000Z,65.11
2017-09-05T15:02:00.432Z,65.85
2017-09-05T15:04:01.885Z,66.43
2017-09-05T15:06:03.427Z,65.85
2017-09-05T15:08:04.875Z,66.92
2017-09-05T15:10:06.544Z,66.92
2017-09-05T15:12:08.530Z,66.72
2017-09-05T15:14:10.006Z,67.50
2017-09-05T15:16:11.485Z,67.11
2017-09-05T15:18:13.181Z,67.21
2017-09-05T15:20:14.707Z,68.37
2017-09-05T15:22:16.224Z,67.27
2017-09-05T15:24:17.665Z,67.85
2017-09-05T15:26:19.307Z,67.56
2017-09-05T15:28:20.745Z,68.43
2017-09-05T15:30:22.468Z,69.01
2017-09-05T15:32:24.114Z,68.15
2017-09-05T15:34:25.626Z,68.15
2017-09-05T15:36:27.067Z,68.24
2017-09-05T15:38:28.860Z,68.11
2017-09-05T15:40:30.346Z,67.91
2017-09-05T15:42:31.835Z,68.69
2017-09-05T15:44:33.298Z,69.17
2017-09-05T15:46:34.765Z,69.27
2017-09-05T15:48:36.275Z,69.01
2017-09-05T15:50:37.733Z,70.08
2017-09-05T15:52:39.265Z,68.82
2017-09-05T15:54:40.676Z,68.88
2017-09-05T15:56:42.149Z,69.50
2017-09-05T15:58:43.586Z,69.50
2017-09-05T16:00:45.018Z,69.31
2017-09-05T16:02:46.450Z,69.31
2017-09-05T16:04:47.882Z,69.31
2017-09-05T16:06:49.321Z,68.63
2017-09-05T16:08:50.754Z,68.91
2017-09-05T16:10:52.187Z,68.43
2017-09-05T16:12:53.618Z,68.43
2017-09-05T16:14:56.049Z,68.33
2017-09-05T16:16:57.543Z,68.43
2017-09-05T16:18:58.993Z,68.63
2017-09-05T16:21:00.416Z,68.53
2017-09-05T16:23:01.850Z,67.95
2017-09-05T16:25:04.790Z,68.79
2017-09-05T16:27:06.300Z,70.04
2017-09-05T16:29:07.793Z,69.37
2017-09-05T16:31:09.299Z,69.46
2017-09-05T16:33:10.754Z,69.95
2017-09-05T16:35:12.214Z,69.92
2017-09-05T16:37:13.648Z,69.92
2017-09-05T16:39:15.297Z,70.88
2017-09-05T16:41:17.075Z,70.88
2017-09-05T16:43:18.612Z,71.36
2017-09-05T16:45:30.106Z,70.78
2017-09-05T16:47:31.942Z,70.75
2017-09-05T16:49:33.674Z,71.26
2017-09-05T16:51:35.261Z,71.26
2017-09-05T16:53:36.762Z,71.66
2017-09-05T16:55:38.269Z,71.26
2017-09-05T16:57:39.797Z,71.42
2017-09-05T16:59:41.329Z,71.72
2017-09-05T17:01:43.264Z,71.62
2017-09-05T17:04:26.454Z,71.75
2017-09-05T17:06:27.906Z,71.42
2017-09-05T17:08:29.335Z,72.00
2017-09-05T17:10:30.917Z,72.20
2017-09-05T17:12:32.396Z,72.10
2017-09-05T17:14:35.281Z,72.26
2017-09-05T17:16:36.644Z,72.36
2017-09-05T17:18:38.545Z,72.55
2017-09-05T17:20:40.454Z,72.94
2017-09-05T17:22:42.048Z,72.64
2017-09-05T17:24:43.566Z,73.26
2017-09-05T17:26:45.071Z,72.16
2017-09-05T17:28:46.742Z,70.84
2017-09-05T17:30:48.316Z,71.30
2017-09-05T17:32:50.090Z,70.81
2017-09-05T17:35:32.744Z,70.81
2017-09-05T17:37:34.196Z,70.23
2017-09-05T17:39:35.603Z,70.62
2017-09-05T17:41:37.035Z,70.23
2017-09-05T17:43:39.730Z,70.32
2017-09-05T17:45:41.162Z,69.84
2017-09-05T17:47:42.610Z,69.84
2017-09-05T17:49:44.021Z,70.78
2017-09-05T17:51:45.468Z,70.58
2017-09-05T17:53:46.895Z,70.68
2017-09-05T17:55:48.330Z,71.06
2017-09-05T17:57:49.828Z,71.36
2017-09-05T17:59:51.376Z,71.64
2017-09-05T18:01:52.865Z,71.06
2017-09-05T18:03:54.298Z,71.74
2017-09-05T18:05:56.102Z,71.36
2017-09-05T18:07:57.613Z,71.36
2017-09-05T18:09:59.120Z,71.45
2017-09-05T18:12:00.548Z,71.16
2017-09-05T18:14:01.992Z,71.26
2017-09-05T18:16:04.528Z,71.74
2017-09-05T18:18:06.020Z,71.74
2017-09-05T18:20:08.694Z,71.26
2017-09-05T18:22:10.051Z,71.45
2017-09-05T18:24:12.022Z,71.90
2017-09-05T18:26:13.536Z,71.51
2017-09-05T18:28:15.013Z,71.80
2017-09-05T18:30:16.449Z,71.70
2017-09-05T18:32:17.881Z,71.84
2017-09-05T18:34:19.307Z,72.09
2017-09-05T18:36:21.675Z,71.80
2017-09-05T18:38:23.712Z,72.09
2017-09-05T18:40:25.679Z,72.22
2017-09-05T18:42:27.229Z,73.28
2017-09-05T18:44:28.674Z,72.13
2017-09-05T18:46:30.379Z,72.09
2017-09-05T18:48:31.841Z,72.22
2017-09-05T18:50:33.282Z,72.90
2017-09-05T18:52:34.708Z,72.32
2017-09-05T18:54:36.164Z,72.32
2017-09-05T18:56:37.584Z,72.13
2017-09-05T18:58:39.018Z,72.32
2017-09-05T19:00:42.119Z,72.42
2017-09-05T19:02:44.712Z,71.84
2017-09-05T19:04:46.204Z,72.80
2017-09-05T19:06:47.680Z,72.32
2017-09-05T19:08:49.136Z,72.80
2017-09-05T19:10:51.374Z,72.32
2017-09-05T19:12:52.875Z,72.32
2017-09-05T19:14:54.370Z,73.67
2017-09-05T19:16:56.240Z,72.80
2017-09-05T19:18:57.709Z,73.28
2017-09-05T19:20:59.262Z,73.38
2017-09-05T19:23:01.844Z,73.77
2017-09-05T19:25:03.670Z,73.58
2017-09-05T19:27:06.542Z,72.61
2017-09-05T19:29:48.953Z,73.19
2017-09-05T19:31:50.434Z,73.58
2017-09-05T19:33:55.106Z,73.77
2017-09-05T19:35:56.520Z,74.64
2017-09-05T19:37:59.463Z,74.64
2017-09-05T19:40:02.345Z,74.83
2017-09-05T19:42:03.743Z,75.22
2017-09-05T19:44:05.272Z,74.16
2017-09-05T19:46:06.777Z,74.35
2017-09-05T19:48:08.366Z,74.35
2017-09-05T19:50:50.986Z,74.06
2017-09-05T19:52:52.731Z,74.73
2017-09-05T19:54:56.258Z,74.35
2017-09-05T19:56:57.721Z,73.77
2017-09-05T19:59:02.030Z,74.73
2017-09-05T20:01:45.490Z,74.83
2017-09-05T20:03:46.952Z,75.79
2017-09-05T20:06:29.411Z,74.93
2017-09-05T20:08:30.909Z,75.89
2017-09-05T20:10:32.462Z,75.41
2017-09-05T20:12:33.888Z,75.99
2017-09-05T20:14:36.047Z,76.18
2017-09-05T20:16:41.397Z,76.18
2017-09-05T20:18:42.852Z,76.18
2017-09-05T20:20:46.713Z,75.99
2017-09-05T20:22:48.381Z,76.34
2017-09-05T20:24:49.916Z,76.34
2017-09-05T20:26:51.369Z,76.09
2017-09-05T20:28:52.865Z,76.18
2017-09-05T20:30:54.407Z,76.09
2017-09-05T20:33:42.244Z,76.18
2017-09-05T20:35:44.054Z,76.37
2017-09-05T20:38:30.550Z,76.95
2017-09-05T20:40:34.547Z,76.63
2017-09-05T20:42:38.329Z,76.53
2017-09-05T20:44:40.042Z,76.53
2017-09-05T20:46:50.906Z,76.53
2017-09-05T20:48:52.376Z,77.40
2017-09-05T20:50:56.045Z,77.11
2017-09-05T20:52:57.604Z,77.59
2017-09-05T20:55:40.224Z,77.98
2017-09-05T20:57:41.895Z,78.56
2017-09-05T20:59:47.822Z,78.17
2017-09-05T21:01:49.521Z,79.19
2017-09-05T21:03:51.329Z,78.85
2017-09-05T21:06:33.786Z,79.97
2017-09-05T21:08:35.434Z,79.58
2017-09-05T21:10:40.005Z,79.77
2017-09-05T21:12:41.693Z,80.16
2017-09-05T21:14:43.343Z,80.54
2017-09-05T21:16:45.145Z,81.27
2017-09-05T21:18:49.715Z,81.27
2017-09-05T21:20:51.477Z,81.27
2017-09-05T21:23:33.849Z,81.18
2017-09-05T21:26:21.833Z,81.37
2017-09-05T21:28:23.491Z,81.76
2017-09-05T21:30:25.313Z,81.85
2017-09-05T21:32:26.831Z,81.76
2017-09-05T21:34:31.487Z,81.18
2017-09-05T21:36:32.926Z,81.76
2017-09-05T21:38:37.076Z,82.49
2017-09-05T21:40:40.210Z,83.36
2017-09-05T21:42:42.017Z,84.61
2017-09-05T21:44:43.827Z,85.43
2017-09-05T21:46:45.593Z,84.90
2017-09-05T21:48:48.399Z,83.74
2017-09-05T21:50:50.264Z,82.39
2017-09-05T21:52:52.228Z,79.89
2017-09-05T21:55:34.853Z,80.27
2017-09-05T21:58:17.397Z,80.08
2017-09-05T22:00:18.972Z,79.31
2017-09-05T22:02:22.007Z,79.50
2017-09-05T22:04:23.628Z,79.79
2017-09-05T22:06:25.173Z,80.23
2017-09-05T22:08:27.019Z,80.04
2017-09-05T22:10:28.588Z,80.08
2017-09-05T22:13:16.297Z,80.18
2017-09-05T22:15:19.068Z,80.46
2017-09-05T22:17:21.794Z,80.27
2017-09-05T22:19:23.345Z,81.01
2017-09-05T22:21:24.991Z,81.39
2017-09-05T22:23:26.804Z,81.87
2017-09-05T22:25:28.325Z,81.96
2017-09-05T22:27:30.213Z,81.96
2017-09-05T22:29:31.831Z,82.16
2017-09-05T22:31:33.447Z,82.45
2017-09-05T22:33:35.182Z,83.08
2017-09-05T22:35:37.120Z,83.56
2017-09-05T22:37:38.656Z,84.72
2017-09-05T22:39:40.437Z,85.10
2017-09-05T22:41:43.334Z,85.39
2017-09-05T22:43:45.100Z,85.78
2017-09-05T22:46:27.636Z,85.97
2017-09-05T22:48:33.981Z,86.22
2017-09-05T22:50:35.439Z,86.26
2017-09-05T22:52:36.963Z,86.45
2017-09-05T22:54:38.466Z,86.26
2017-09-05T22:56:40.015Z,86.16
2017-09-05T22:58:41.811Z,86.26
2017-09-05T23:01:26.415Z,86.16
2017-09-05T23:03:30.622Z,85.78
2017-09-05T23:05:33.216Z,85.63
2017-09-05T23:07:35.864Z,85.78
2017-09-05T23:09:37.462Z,85.78
2017-09-05T23:11:39.182Z,85.97
2017-09-05T23:13:41.051Z,85.68
2017-09-05T23:15:43.801Z,86.07
2017-09-05T23:17:45.341Z,85.78
2017-09-05T23:19:47.122Z,85.68
2017-09-05T23:21:49.628Z,85.53
2017-09-05T23:23:52.427Z,85.39
2017-09-05T23:25:55.078Z,85.39
2017-09-05T23:27:56.960Z,85.20
2017-09-05T23:29:59.329Z,85.49
2017-09-05T23:32:46.300Z,85.49
2017-09-05T23:34:47.812Z,86.07
2017-09-05T23:36:50.279Z,86.55
2017-09-05T23:38:52.009Z,86.79
2017-09-05T23:40:53.664Z,87.56
2017-09-05T23:42:56.219Z,87.46
2017-09-05T23:44:58.002Z,87.37
2017-09-05T23:47:00.452Z,86.83
2017-09-05T23:49:02.898Z,85.87
2017-09-05T23:51:05.163Z,85.78
2017-09-05T23:53:06.749Z,85.68
2017-09-05T23:55:08.511Z,85.68
2017-09-05T23:57:10.255Z,85.87
2017-09-05T23:59:11.773Z,85.87
